sensor_id;sensor_type;location;lat;lon;timestamp;temperature;humidity
22917;DHT22;11624;53.250;7.456;2024-01-07T00:01:48;6.64;54.04
22917;DHT22;11624;53.250;7.456;2024-01-07T00:04:17;6.65;54.08
22917;DHT22;11624;53.250;7.456;2024-01-07T00:06:46;6.63;53.81
22917;DHT22;11624;53.250;7.456;2024-01-07T00:09:15;6.59;53.87
22917;DHT22;11624;53.250;7.456;2024-01-07T00:11:44;6.57;53.94
22917;DHT22;11624;53.250;7.456;2024-01-07T00:14:12;6.55;53.97
22917;DHT22;11624;53.250;7.456;2024-01-07T00:16:40;6.58;52.94
22917;DHT22;11624;53.250;7.456;2024-01-07T00:19:10;6.52;53.18
22917;DHT22;11624;53.250;7.456;2024-01-07T00:21:38;6.48;53.41
22917;DHT22;11624;53.250;7.456;2024-01-07T00:24:06;6.46;53.59
22917;DHT22;11624;53.250;7.456;2024-01-07T00:26:34;6.51;53.27
22917;DHT22;11624;53.250;7.456;2024-01-07T00:29:03;6.49;53.58
22917;DHT22;11624;53.250;7.456;2024-01-07T00:31:31;6.51;53.53
22917;DHT22;11624;53.250;7.456;2024-01-07T00:34:00;6.51;53.64
22917;DHT22;11624;53.250;7.456;2024-01-07T00:36:30;6.51;53.20
22917;DHT22;11624;53.250;7.456;2024-01-07T00:38:58;6.45;53.06
22917;DHT22;11624;53.250;7.456;2024-01-07T00:41:26;6.45;53.13
22917;DHT22;11624;53.250;7.456;2024-01-07T00:43:54;6.41;53.17
22917;DHT22;11624;53.250;7.456;2024-01-07T00:46:23;6.44;53.20
22917;DHT22;11624;53.250;7.456;2024-01-07T00:48:51;6.45;53.30
22917;DHT22;11624;53.250;7.456;2024-01-07T00:51:19;6.44;53.23
22917;DHT22;11624;53.250;7.456;2024-01-07T00:53:48;6.45;53.01
22917;DHT22;11624;53.250;7.456;2024-01-07T00:56:16;6.50;52.98
22917;DHT22;11624;53.250;7.456;2024-01-07T00:58:44;6.49;53.03
22917;DHT22;11624;53.250;7.456;2024-01-07T01:01:12;6.53;52.99
22917;DHT22;11624;53.250;7.456;2024-01-07T01:03:41;6.55;52.76
22917;DHT22;11624;53.250;7.456;2024-01-07T01:06:09;6.50;52.85
22917;DHT22;11624;53.250;7.456;2024-01-07T01:08:38;6.48;52.82
22917;DHT22;11624;53.250;7.456;2024-01-07T01:11:10;6.54;52.51
22917;DHT22;11624;53.250;7.456;2024-01-07T01:13:38;6.52;52.26
22917;DHT22;11624;53.250;7.456;2024-01-07T01:16:06;6.45;52.93
22917;DHT22;11624;53.250;7.456;2024-01-07T01:18:35;6.43;52.76
22917;DHT22;11624;53.250;7.456;2024-01-07T01:21:04;6.37;53.07
22917;DHT22;11624;53.250;7.456;2024-01-07T01:23:32;6.43;53.01
22917;DHT22;11624;53.250;7.456;2024-01-07T01:26:00;6.49;52.65
22917;DHT22;11624;53.250;7.456;2024-01-07T01:28:30;6.45;52.81
22917;DHT22;11624;53.250;7.456;2024-01-07T01:30:58;6.40;52.33
22917;DHT22;11624;53.250;7.456;2024-01-07T01:33:26;6.37;52.62
22917;DHT22;11624;53.250;7.456;2024-01-07T01:35:55;6.38;52.47
22917;DHT22;11624;53.250;7.456;2024-01-07T01:38:23;6.41;52.46
22917;DHT22;11624;53.250;7.456;2024-01-07T01:40:52;6.35;52.49
22917;DHT22;11624;53.250;7.456;2024-01-07T01:43:24;6.34;51.95
22917;DHT22;11624;53.250;7.456;2024-01-07T01:45:54;6.44;51.69
22917;DHT22;11624;53.250;7.456;2024-01-07T01:48:23;6.39;51.85
22917;DHT22;11624;53.250;7.456;2024-01-07T01:50:52;6.37;52.03
22917;DHT22;11624;53.250;7.456;2024-01-07T01:53:22;6.40;51.98
22917;DHT22;11624;53.250;7.456;2024-01-07T01:55:50;6.37;51.82
22917;DHT22;11624;53.250;7.456;2024-01-07T01:58:19;6.33;51.62
22917;DHT22;11624;53.250;7.456;2024-01-07T02:00:48;6.27;51.51
22917;DHT22;11624;53.250;7.456;2024-01-07T02:03:19;6.30;51.28
22917;DHT22;11624;53.250;7.456;2024-01-07T02:05:48;6.33;51.18
22917;DHT22;11624;53.250;7.456;2024-01-07T02:08:17;6.28;51.17
22917;DHT22;11624;53.250;7.456;2024-01-07T02:10:46;6.31;51.33
22917;DHT22;11624;53.250;7.456;2024-01-07T02:13:14;6.35;51.01
22917;DHT22;11624;53.250;7.456;2024-01-07T02:15:43;6.27;50.77
22917;DHT22;11624;53.250;7.456;2024-01-07T02:18:11;6.27;50.72
22917;DHT22;11624;53.250;7.456;2024-01-07T02:20:41;6.34;50.56
22917;DHT22;11624;53.250;7.456;2024-01-07T02:23:09;6.37;50.66
22917;DHT22;11624;53.250;7.456;2024-01-07T02:25:38;6.41;50.27
22917;DHT22;11624;53.250;7.456;2024-01-07T02:28:07;6.39;50.61
22917;DHT22;11624;53.250;7.456;2024-01-07T02:30:36;6.41;50.32
22917;DHT22;11624;53.250;7.456;2024-01-07T02:33:04;6.41;50.47
22917;DHT22;11624;53.250;7.456;2024-01-07T02:35:33;6.42;50.57
22917;DHT22;11624;53.250;7.456;2024-01-07T02:38:01;6.39;50.59
22917;DHT22;11624;53.250;7.456;2024-01-07T02:40:29;6.37;50.71
22917;DHT22;11624;53.250;7.456;2024-01-07T02:42:59;6.40;50.43
22917;DHT22;11624;53.250;7.456;2024-01-07T02:45:27;6.45;50.47
22917;DHT22;11624;53.250;7.456;2024-01-07T02:47:55;6.44;50.40
22917;DHT22;11624;53.250;7.456;2024-01-07T02:50:24;6.36;50.69
22917;DHT22;11624;53.250;7.456;2024-01-07T02:52:53;6.43;50.71
22917;DHT22;11624;53.250;7.456;2024-01-07T02:55:21;6.41;50.79
22917;DHT22;11624;53.250;7.456;2024-01-07T02:57:49;6.43;50.43
22917;DHT22;11624;53.250;7.456;2024-01-07T03:00:19;6.44;50.18
22917;DHT22;11624;53.250;7.456;2024-01-07T03:02:47;6.42;50.40
22917;DHT22;11624;53.250;7.456;2024-01-07T03:05:16;6.40;50.22
22917;DHT22;11624;53.250;7.456;2024-01-07T03:07:44;6.40;50.25
22917;DHT22;11624;53.250;7.456;2024-01-07T03:10:12;6.42;50.08
22917;DHT22;11624;53.250;7.456;2024-01-07T03:12:41;6.39;50.03
22917;DHT22;11624;53.250;7.456;2024-01-07T03:15:09;6.39;50.14
22917;DHT22;11624;53.250;7.456;2024-01-07T03:17:39;6.35;50.05
22917;DHT22;11624;53.250;7.456;2024-01-07T03:20:08;6.37;49.84
22917;DHT22;11624;53.250;7.456;2024-01-07T03:22:36;6.28;49.98
22917;DHT22;11624;53.250;7.456;2024-01-07T03:25:05;6.34;50.15
22917;DHT22;11624;53.250;7.456;2024-01-07T03:27:34;6.35;49.93
22917;DHT22;11624;53.250;7.456;2024-01-07T03:30:03;6.37;50.09
22917;DHT22;11624;53.250;7.456;2024-01-07T03:32:31;6.42;49.99
22917;DHT22;11624;53.250;7.456;2024-01-07T03:35:01;6.39;49.95
22917;DHT22;11624;53.250;7.456;2024-01-07T03:37:29;6.38;49.57
22917;DHT22;11624;53.250;7.456;2024-01-07T03:39:57;6.34;49.62
22917;DHT22;11624;53.250;7.456;2024-01-07T03:42:25;6.34;49.71
22917;DHT22;11624;53.250;7.456;2024-01-07T03:44:54;6.36;49.54
22917;DHT22;11624;53.250;7.456;2024-01-07T03:47:21;6.37;49.56
22917;DHT22;11624;53.250;7.456;2024-01-07T03:49:49;6.35;49.30
22917;DHT22;11624;53.250;7.456;2024-01-07T03:52:19;6.34;49.02
22917;DHT22;11624;53.250;7.456;2024-01-07T03:54:47;6.34;48.99
22917;DHT22;11624;53.250;7.456;2024-01-07T03:57:15;6.38;48.99
22917;DHT22;11624;53.250;7.456;2024-01-07T03:59:43;6.36;48.99
22917;DHT22;11624;53.250;7.456;2024-01-07T04:02:11;6.35;48.84
22917;DHT22;11624;53.250;7.456;2024-01-07T04:04:43;6.41;48.20
22917;DHT22;11624;53.250;7.456;2024-01-07T04:07:11;6.45;47.88
22917;DHT22;11624;53.250;7.456;2024-01-07T04:09:42;6.41;47.79
22917;DHT22;11624;53.250;7.456;2024-01-07T04:12:11;6.39;48.12
22917;DHT22;11624;53.250;7.456;2024-01-07T04:14:39;6.33;47.98
22917;DHT22;11624;53.250;7.456;2024-01-07T04:17:07;6.27;48.11
22917;DHT22;11624;53.250;7.456;2024-01-07T04:19:36;6.22;48.52
22917;DHT22;11624;53.250;7.456;2024-01-07T04:22:05;6.29;48.48
22917;DHT22;11624;53.250;7.456;2024-01-07T04:24:33;6.28;48.42
22917;DHT22;11624;53.250;7.456;2024-01-07T04:27:03;6.29;48.21
22917;DHT22;11624;53.250;7.456;2024-01-07T04:29:32;6.34;48.36
22917;DHT22;11624;53.250;7.456;2024-01-07T04:32:00;6.34;48.41
22917;DHT22;11624;53.250;7.456;2024-01-07T04:34:28;6.31;48.57
22917;DHT22;11624;53.250;7.456;2024-01-07T04:36:56;6.40;48.24
22917;DHT22;11624;53.250;7.456;2024-01-07T04:39:25;6.41;48.12
22917;DHT22;11624;53.250;7.456;2024-01-07T04:41:53;6.48;47.77
22917;DHT22;11624;53.250;7.456;2024-01-07T04:44:23;6.40;48.15
22917;DHT22;11624;53.250;7.456;2024-01-07T04:46:51;6.36;47.75
22917;DHT22;11624;53.250;7.456;2024-01-07T04:49:19;6.37;47.80
22917;DHT22;11624;53.250;7.456;2024-01-07T04:51:48;6.37;47.98
22917;DHT22;11624;53.250;7.456;2024-01-07T04:54:16;6.34;48.26
22917;DHT22;11624;53.250;7.456;2024-01-07T04:56:45;6.38;47.86
22917;DHT22;11624;53.250;7.456;2024-01-07T04:59:13;6.33;47.92
22917;DHT22;11624;53.250;7.456;2024-01-07T05:01:43;6.31;48.06
22917;DHT22;11624;53.250;7.456;2024-01-07T05:04:11;6.33;47.92
22917;DHT22;11624;53.250;7.456;2024-01-07T05:06:40;6.35;47.97
22917;DHT22;11624;53.250;7.456;2024-01-07T05:09:08;6.35;48.16
22917;DHT22;11624;53.250;7.456;2024-01-07T05:11:39;6.39;47.86
22917;DHT22;11624;53.250;7.456;2024-01-07T05:14:07;6.38;47.79
22917;DHT22;11624;53.250;7.456;2024-01-07T05:16:36;6.36;47.96
22917;DHT22;11624;53.250;7.456;2024-01-07T05:19:05;6.35;47.91
22917;DHT22;11624;53.250;7.456;2024-01-07T05:21:33;6.31;47.95
22917;DHT22;11624;53.250;7.456;2024-01-07T05:24:02;6.31;47.86
22917;DHT22;11624;53.250;7.456;2024-01-07T05:26:34;6.33;47.84
22917;DHT22;11624;53.250;7.456;2024-01-07T05:29:05;6.31;47.77
22917;DHT22;11624;53.250;7.456;2024-01-07T05:31:33;6.35;47.76
22917;DHT22;11624;53.250;7.456;2024-01-07T05:34:02;6.37;47.57
22917;DHT22;11624;53.250;7.456;2024-01-07T05:36:32;6.34;47.73
22917;DHT22;11624;53.250;7.456;2024-01-07T05:39:00;6.34;47.73
22917;DHT22;11624;53.250;7.456;2024-01-07T05:41:28;6.33;48.02
22917;DHT22;11624;53.250;7.456;2024-01-07T05:43:56;6.35;47.67
22917;DHT22;11624;53.250;7.456;2024-01-07T05:46:24;6.34;47.75
22917;DHT22;11624;53.250;7.456;2024-01-07T05:48:53;6.21;48.06
22917;DHT22;11624;53.250;7.456;2024-01-07T05:51:21;6.22;47.77
22917;DHT22;11624;53.250;7.456;2024-01-07T05:53:51;6.26;47.86
22917;DHT22;11624;53.250;7.456;2024-01-07T05:56:19;6.20;47.48
22917;DHT22;11624;53.250;7.456;2024-01-07T05:58:47;6.22;47.42
22917;DHT22;11624;53.250;7.456;2024-01-07T06:01:18;6.22;47.23
22917;DHT22;11624;53.250;7.456;2024-01-07T06:03:47;6.27;47.28
22917;DHT22;11624;53.250;7.456;2024-01-07T06:06:16;6.23;46.98
22917;DHT22;11624;53.250;7.456;2024-01-07T06:08:44;6.17;47.10
22917;DHT22;11624;53.250;7.456;2024-01-07T06:11:14;6.19;46.98
22917;DHT22;11624;53.250;7.456;2024-01-07T06:13:47;6.16;46.92
22917;DHT22;11624;53.250;7.456;2024-01-07T06:16:15;6.15;46.71
22917;DHT22;11624;53.250;7.456;2024-01-07T06:18:43;6.10;46.51
22917;DHT22;11624;53.250;7.456;2024-01-07T06:21:12;6.09;46.63
22917;DHT22;11624;53.250;7.456;2024-01-07T06:23:40;6.06;46.38
22917;DHT22;11624;53.250;7.456;2024-01-07T06:26:09;5.99;46.29
22917;DHT22;11624;53.250;7.456;2024-01-07T06:28:38;5.93;46.40
22917;DHT22;11624;53.250;7.456;2024-01-07T06:31:06;5.86;46.35
22917;DHT22;11624;53.250;7.456;2024-01-07T06:33:35;5.80;46.64
22917;DHT22;11624;53.250;7.456;2024-01-07T06:36:03;5.79;46.76
22917;DHT22;11624;53.250;7.456;2024-01-07T06:38:31;5.77;46.59
22917;DHT22;11624;53.250;7.456;2024-01-07T06:41:00;5.72;46.76
22917;DHT22;11624;53.250;7.456;2024-01-07T06:43:31;5.68;46.95
22917;DHT22;11624;53.250;7.456;2024-01-07T06:46:01;5.72;46.86
22917;DHT22;11624;53.250;7.456;2024-01-07T06:48:30;5.67;46.57
22917;DHT22;11624;53.250;7.456;2024-01-07T06:50:58;5.64;46.66
22917;DHT22;11624;53.250;7.456;2024-01-07T06:53:26;5.60;46.94
22917;DHT22;11624;53.250;7.456;2024-01-07T06:55:54;5.59;47.05
22917;DHT22;11624;53.250;7.456;2024-01-07T06:58:23;5.66;46.54
22917;DHT22;11624;53.250;7.456;2024-01-07T07:00:51;5.62;47.02
22917;DHT22;11624;53.250;7.456;2024-01-07T07:03:20;5.75;47.18
22917;DHT22;11624;53.250;7.456;2024-01-07T07:05:49;5.79;47.29
22917;DHT22;11624;53.250;7.456;2024-01-07T07:08:17;5.82;47.20
22917;DHT22;11624;53.250;7.456;2024-01-07T07:10:45;5.87;47.17
22917;DHT22;11624;53.250;7.456;2024-01-07T07:13:13;5.98;46.99
22917;DHT22;11624;53.250;7.456;2024-01-07T07:15:42;5.96;46.73
22917;DHT22;11624;53.250;7.456;2024-01-07T07:18:10;6.02;46.76
22917;DHT22;11624;53.250;7.456;2024-01-07T07:20:40;6.00;46.83
22917;DHT22;11624;53.250;7.456;2024-01-07T07:23:08;5.99;46.80
22917;DHT22;11624;53.250;7.456;2024-01-07T07:25:36;6.00;46.94
22917;DHT22;11624;53.250;7.456;2024-01-07T07:28:05;6.01;46.92
22917;DHT22;11624;53.250;7.456;2024-01-07T07:30:33;6.10;46.99
22917;DHT22;11624;53.250;7.456;2024-01-07T07:33:02;6.09;46.93
22917;DHT22;11624;53.250;7.456;2024-01-07T07:35:30;6.11;47.08
22917;DHT22;11624;53.250;7.456;2024-01-07T07:38:00;6.15;46.93
22917;DHT22;11624;53.250;7.456;2024-01-07T07:40:28;6.19;46.97
22917;DHT22;11624;53.250;7.456;2024-01-07T07:42:56;6.19;47.04
22917;DHT22;11624;53.250;7.456;2024-01-07T07:45:24;6.20;46.93
22917;DHT22;11624;53.250;7.456;2024-01-07T07:47:53;6.21;46.98
22917;DHT22;11624;53.250;7.456;2024-01-07T07:50:21;6.17;47.12
22917;DHT22;11624;53.250;7.456;2024-01-07T07:52:49;6.21;47.10
22917;DHT22;11624;53.250;7.456;2024-01-07T07:55:19;6.21;47.08
22917;DHT22;11624;53.250;7.456;2024-01-07T07:57:47;6.21;47.16
22917;DHT22;11624;53.250;7.456;2024-01-07T08:00:16;6.17;47.28
22917;DHT22;11624;53.250;7.456;2024-01-07T08:02:44;6.17;47.33
22917;DHT22;11624;53.250;7.456;2024-01-07T08:05:12;6.28;47.04
22917;DHT22;11624;53.250;7.456;2024-01-07T08:07:41;6.39;47.00
22917;DHT22;11624;53.250;7.456;2024-01-07T08:10:09;6.42;46.99
22917;DHT22;11624;53.250;7.456;2024-01-07T08:12:39;6.44;47.09
22917;DHT22;11624;53.250;7.456;2024-01-07T08:15:08;6.45;47.11
22917;DHT22;11624;53.250;7.456;2024-01-07T08:17:36;6.41;47.19
22917;DHT22;11624;53.250;7.456;2024-01-07T08:20:05;6.44;47.17
22917;DHT22;11624;53.250;7.456;2024-01-07T08:22:34;6.50;47.20
22917;DHT22;11624;53.250;7.456;2024-01-07T08:25:02;6.52;47.02
22917;DHT22;11624;53.250;7.456;2024-01-07T08:27:31;6.52;47.08
22917;DHT22;11624;53.250;7.456;2024-01-07T08:30:05;6.61;46.65
22917;DHT22;11624;53.250;7.456;2024-01-07T08:32:34;6.66;46.54
22917;DHT22;11624;53.250;7.456;2024-01-07T08:35:02;6.69;46.69
22917;DHT22;11624;53.250;7.456;2024-01-07T08:37:31;6.76;46.60
22917;DHT22;11624;53.250;7.456;2024-01-07T08:39:59;6.80;46.50
22917;DHT22;11624;53.250;7.456;2024-01-07T08:42:28;6.83;46.47
22917;DHT22;11624;53.250;7.456;2024-01-07T08:44:57;6.84;46.40
22917;DHT22;11624;53.250;7.456;2024-01-07T08:47:29;6.84;46.30
22917;DHT22;11624;53.250;7.456;2024-01-07T08:50:03;6.86;46.27
22917;DHT22;11624;53.250;7.456;2024-01-07T08:52:32;6.83;46.25
22917;DHT22;11624;53.250;7.456;2024-01-07T08:55:02;6.84;46.31
22917;DHT22;11624;53.250;7.456;2024-01-07T08:57:32;6.85;45.64
22917;DHT22;11624;53.250;7.456;2024-01-07T09:00:01;6.90;46.02
22917;DHT22;11624;53.250;7.456;2024-01-07T09:02:31;6.97;46.00
22917;DHT22;11624;53.250;7.456;2024-01-07T09:04:59;7.01;46.04
22917;DHT22;11624;53.250;7.456;2024-01-07T09:07:27;7.09;45.87
22917;DHT22;11624;53.250;7.456;2024-01-07T09:09:55;7.11;45.75
22917;DHT22;11624;53.250;7.456;2024-01-07T09:12:27;7.16;45.45
22917;DHT22;11624;53.250;7.456;2024-01-07T09:14:55;7.18;45.57
22917;DHT22;11624;53.250;7.456;2024-01-07T09:17:23;7.23;45.36
22917;DHT22;11624;53.250;7.456;2024-01-07T09:19:53;7.26;45.12
22917;DHT22;11624;53.250;7.456;2024-01-07T09:22:22;7.27;45.54
22917;DHT22;11624;53.250;7.456;2024-01-07T09:24:50;7.33;45.38
22917;DHT22;11624;53.250;7.456;2024-01-07T09:27:20;7.34;45.57
22917;DHT22;11624;53.250;7.456;2024-01-07T09:29:48;7.41;45.12
22917;DHT22;11624;53.250;7.456;2024-01-07T09:32:16;7.46;45.24
22917;DHT22;11624;53.250;7.456;2024-01-07T09:34:44;7.47;44.98
22917;DHT22;11624;53.250;7.456;2024-01-07T09:37:14;7.52;45.04
22917;DHT22;11624;53.250;7.456;2024-01-07T09:39:43;7.60;45.10
22917;DHT22;11624;53.250;7.456;2024-01-07T09:42:13;7.62;44.66
22917;DHT22;11624;53.250;7.456;2024-01-07T09:44:41;7.63;44.61
22917;DHT22;11624;53.250;7.456;2024-01-07T09:47:11;7.63;44.93
22917;DHT22;11624;53.250;7.456;2024-01-07T09:49:41;7.71;44.93
22917;DHT22;11624;53.250;7.456;2024-01-07T09:52:10;7.79;44.74
22917;DHT22;11624;53.250;7.456;2024-01-07T09:54:40;7.86;44.39
22917;DHT22;11624;53.250;7.456;2024-01-07T09:57:09;7.83;44.73
22917;DHT22;11624;53.250;7.456;2024-01-07T09:59:37;7.92;44.53
22917;DHT22;11624;53.250;7.456;2024-01-07T10:02:06;7.87;44.59
22917;DHT22;11624;53.250;7.456;2024-01-07T10:04:36;7.89;44.87
22917;DHT22;11624;53.250;7.456;2024-01-07T10:07:04;7.89;45.13
22917;DHT22;11624;53.250;7.456;2024-01-07T10:09:33;7.92;45.57
22917;DHT22;11624;53.250;7.456;2024-01-07T10:12:04;8.03;45.89
22917;DHT22;11624;53.250;7.456;2024-01-07T10:14:32;8.43;46.94
22917;DHT22;11624;53.250;7.456;2024-01-07T10:17:01;9.24;46.72
22917;DHT22;11624;53.250;7.456;2024-01-07T10:19:29;9.89;45.77
22917;DHT22;11624;53.250;7.456;2024-01-07T10:22:01;10.54;43.75
22917;DHT22;11624;53.250;7.456;2024-01-07T10:24:36;11.11;43.07
22917;DHT22;11624;53.250;7.456;2024-01-07T10:27:08;11.56;41.13
22917;DHT22;11624;53.250;7.456;2024-01-07T10:29:36;11.88;40.07
22917;DHT22;11624;53.250;7.456;2024-01-07T10:32:06;12.16;38.62
22917;DHT22;11624;53.250;7.456;2024-01-07T10:34:35;12.31;38.64
22917;DHT22;11624;53.250;7.456;2024-01-07T10:37:04;12.60;37.93
22917;DHT22;11624;53.250;7.456;2024-01-07T10:39:33;12.67;35.77
22917;DHT22;11624;53.250;7.456;2024-01-07T10:42:01;12.63;36.31
22917;DHT22;11624;53.250;7.456;2024-01-07T10:44:32;12.49;36.54
22917;DHT22;11624;53.250;7.456;2024-01-07T10:47:06;12.11;36.47
22917;DHT22;11624;53.250;7.456;2024-01-07T10:49:35;12.04;38.24
22917;DHT22;11624;53.250;7.456;2024-01-07T10:52:06;12.48;36.33
22917;DHT22;11624;53.250;7.456;2024-01-07T10:54:36;12.78;36.84
22917;DHT22;11624;53.250;7.456;2024-01-07T10:57:09;13.24;35.78
22917;DHT22;11624;53.250;7.456;2024-01-07T10:59:44;13.43;35.95
22917;DHT22;11624;53.250;7.456;2024-01-07T11:02:13;13.56;34.70
22917;DHT22;11624;53.250;7.456;2024-01-07T11:04:45;13.58;35.18
22917;DHT22;11624;53.250;7.456;2024-01-07T11:07:21;13.41;33.54
22917;DHT22;11624;53.250;7.456;2024-01-07T11:10:00;12.66;33.71
22917;DHT22;11624;53.250;7.456;2024-01-07T11:12:32;11.78;35.44
22917;DHT22;11624;53.250;7.456;2024-01-07T11:15:02;11.15;36.63
22917;DHT22;11624;53.250;7.456;2024-01-07T11:17:40;10.66;37.28
22917;DHT22;11624;53.250;7.456;2024-01-07T11:20:13;10.18;38.70
22917;DHT22;11624;53.250;7.456;2024-01-07T11:22:42;9.67;39.89
22917;DHT22;11624;53.250;7.456;2024-01-07T11:25:34;9.38;40.88
22917;DHT22;11624;53.250;7.456;2024-01-07T11:28:05;9.23;41.73
22917;DHT22;11624;53.250;7.456;2024-01-07T11:30:39;8.98;41.50
22917;DHT22;11624;53.250;7.456;2024-01-07T11:33:11;8.88;42.33
22917;DHT22;11624;53.250;7.456;2024-01-07T11:35:55;8.81;42.52
22917;DHT22;11624;53.250;7.456;2024-01-07T11:38:24;8.74;43.23
22917;DHT22;11624;53.250;7.456;2024-01-07T11:40:54;8.82;44.25
22917;DHT22;11624;53.250;7.456;2024-01-07T11:43:23;9.11;45.20
22917;DHT22;11624;53.250;7.456;2024-01-07T11:45:53;9.48;45.10
22917;DHT22;11624;53.250;7.456;2024-01-07T11:48:21;10.08;43.77
22917;DHT22;11624;53.250;7.456;2024-01-07T11:50:50;10.41;41.91
22917;DHT22;11624;53.250;7.456;2024-01-07T11:53:22;10.83;43.48
22917;DHT22;11624;53.250;7.456;2024-01-07T11:55:50;11.70;39.97
22917;DHT22;11624;53.250;7.456;2024-01-07T11:58:19;12.30;38.45
22917;DHT22;11624;53.250;7.456;2024-01-07T12:00:47;12.51;37.17
22917;DHT22;11624;53.250;7.456;2024-01-07T12:03:18;13.03;35.95
22917;DHT22;11624;53.250;7.456;2024-01-07T12:05:46;13.41;35.14
22917;DHT22;11624;53.250;7.456;2024-01-07T12:08:15;13.71;34.56
22917;DHT22;11624;53.250;7.456;2024-01-07T12:10:44;14.14;34.89
22917;DHT22;11624;53.250;7.456;2024-01-07T12:13:13;14.50;33.02
22917;DHT22;11624;53.250;7.456;2024-01-07T12:15:43;14.74;33.31
22917;DHT22;11624;53.250;7.456;2024-01-07T12:18:11;14.72;31.16
22917;DHT22;11624;53.250;7.456;2024-01-07T12:20:41;14.39;31.57
22917;DHT22;11624;53.250;7.456;2024-01-07T12:23:09;14.20;31.72
22917;DHT22;11624;53.250;7.456;2024-01-07T12:25:38;13.69;31.35
22917;DHT22;11624;53.250;7.456;2024-01-07T12:28:06;12.95;32.20
22917;DHT22;11624;53.250;7.456;2024-01-07T12:30:36;12.16;33.74
22917;DHT22;11624;53.250;7.456;2024-01-07T12:33:05;11.52;34.93
22917;DHT22;11624;53.250;7.456;2024-01-07T12:35:34;11.36;37.24
22917;DHT22;11624;53.250;7.456;2024-01-07T12:38:05;11.85;37.79
22917;DHT22;11624;53.250;7.456;2024-01-07T12:40:33;12.44;37.44
22917;DHT22;11624;53.250;7.456;2024-01-07T12:43:02;13.35;35.63
22917;DHT22;11624;53.250;7.456;2024-01-07T12:45:31;13.70;33.31
22917;DHT22;11624;53.250;7.456;2024-01-07T12:47:59;13.35;32.86
22917;DHT22;11624;53.250;7.456;2024-01-07T12:50:30;12.82;33.45
22917;DHT22;11624;53.250;7.456;2024-01-07T12:52:58;12.65;34.83
22917;DHT22;11624;53.250;7.456;2024-01-07T12:55:28;12.85;35.32
22917;DHT22;11624;53.250;7.456;2024-01-07T12:57:57;13.40;34.28
22917;DHT22;11624;53.250;7.456;2024-01-07T13:00:25;13.75;33.47
22917;DHT22;11624;53.250;7.456;2024-01-07T13:02:55;13.99;32.13
22917;DHT22;11624;53.250;7.456;2024-01-07T13:05:27;14.08;32.70
22917;DHT22;11624;53.250;7.456;2024-01-07T13:07:56;14.19;31.82
22917;DHT22;11624;53.250;7.456;2024-01-07T13:10:24;14.03;30.93
22917;DHT22;11624;53.250;7.456;2024-01-07T13:12:55;13.39;31.87
22917;DHT22;11624;53.250;7.456;2024-01-07T13:15:34;13.20;33.44
22917;DHT22;11624;53.250;7.456;2024-01-07T13:18:02;13.43;33.12
22917;DHT22;11624;53.250;7.456;2024-01-07T13:20:31;13.65;32.58
22917;DHT22;11624;53.250;7.456;2024-01-07T13:23:01;13.60;31.48
22917;DHT22;11624;53.250;7.456;2024-01-07T13:25:31;13.35;32.82
22917;DHT22;11624;53.250;7.456;2024-01-07T13:28:00;13.61;32.90
22917;DHT22;11624;53.250;7.456;2024-01-07T13:30:29;13.79;32.13
22917;DHT22;11624;53.250;7.456;2024-01-07T13:32:57;13.51;31.78
22917;DHT22;11624;53.250;7.456;2024-01-07T13:35:29;13.22;32.76
22917;DHT22;11624;53.250;7.456;2024-01-07T13:37:58;13.40;32.82
22917;DHT22;11624;53.250;7.456;2024-01-07T13:40:26;13.56;32.19
22917;DHT22;11624;53.250;7.456;2024-01-07T13:42:55;13.80;31.55
22917;DHT22;11624;53.250;7.456;2024-01-07T13:45:24;13.92;31.70
22917;DHT22;11624;53.250;7.456;2024-01-07T13:47:53;14.11;31.14
22917;DHT22;11624;53.250;7.456;2024-01-07T13:50:21;14.23;30.13
22917;DHT22;11624;53.250;7.456;2024-01-07T13:52:49;14.20;29.29
22917;DHT22;11624;53.250;7.456;2024-01-07T13:55:18;14.01;30.10
22917;DHT22;11624;53.250;7.456;2024-01-07T13:57:46;14.04;30.04
22917;DHT22;11624;53.250;7.456;2024-01-07T14:00:15;14.03;30.21
22917;DHT22;11624;53.250;7.456;2024-01-07T14:02:47;14.04;30.40
22917;DHT22;11624;53.250;7.456;2024-01-07T14:05:16;14.08;30.42
22917;DHT22;11624;53.250;7.456;2024-01-07T14:07:46;14.13;30.70
22917;DHT22;11624;53.250;7.456;2024-01-07T14:10:15;14.19;30.31
22917;DHT22;11624;53.250;7.456;2024-01-07T14:12:46;14.04;29.53
22917;DHT22;11624;53.250;7.456;2024-01-07T14:15:15;13.37;29.76
22917;DHT22;11624;53.250;7.456;2024-01-07T14:17:46;12.50;31.20
22917;DHT22;11624;53.250;7.456;2024-01-07T14:20:15;11.76;32.38
22917;DHT22;11624;53.250;7.456;2024-01-07T14:22:43;11.34;33.33
22917;DHT22;11624;53.250;7.456;2024-01-07T14:25:12;11.01;34.57
22917;DHT22;11624;53.250;7.456;2024-01-07T14:27:42;10.99;36.24
22917;DHT22;11624;53.250;7.456;2024-01-07T14:30:11;11.36;36.47
22917;DHT22;11624;53.250;7.456;2024-01-07T14:32:41;11.62;34.78
22917;DHT22;11624;53.250;7.456;2024-01-07T14:35:11;11.17;34.59
22917;DHT22;11624;53.250;7.456;2024-01-07T14:37:39;10.57;35.41
22917;DHT22;11624;53.250;7.456;2024-01-07T14:40:08;10.05;36.74
22917;DHT22;11624;53.250;7.456;2024-01-07T14:42:37;9.64;37.37
22917;DHT22;11624;53.250;7.456;2024-01-07T14:45:06;9.35;38.38
22917;DHT22;11624;53.250;7.456;2024-01-07T14:47:37;9.11;38.72
22917;DHT22;11624;53.250;7.456;2024-01-07T14:50:06;8.92;39.91
22917;DHT22;11624;53.250;7.456;2024-01-07T14:52:36;8.73;40.25
22917;DHT22;11624;53.250;7.456;2024-01-07T14:55:05;8.58;40.56
22917;DHT22;11624;53.250;7.456;2024-01-07T14:57:33;8.43;40.97
22917;DHT22;11624;53.250;7.456;2024-01-07T15:00:02;8.26;41.35
22917;DHT22;11624;53.250;7.456;2024-01-07T15:02:32;8.07;41.75
22917;DHT22;11624;53.250;7.456;2024-01-07T15:05:00;7.91;41.98
22917;DHT22;11624;53.250;7.456;2024-01-07T15:07:29;7.83;42.15
22917;DHT22;11624;53.250;7.456;2024-01-07T15:09:58;7.71;42.40
22917;DHT22;11624;53.250;7.456;2024-01-07T15:12:28;7.62;42.74
22917;DHT22;11624;53.250;7.456;2024-01-07T15:15:04;7.52;42.88
22917;DHT22;11624;53.250;7.456;2024-01-07T15:17:33;7.47;42.91
22917;DHT22;11624;53.250;7.456;2024-01-07T15:20:02;7.41;42.95
22917;DHT22;11624;53.250;7.456;2024-01-07T15:22:30;7.33;43.06
22917;DHT22;11624;53.250;7.456;2024-01-07T15:25:00;7.27;43.17
22917;DHT22;11624;53.250;7.456;2024-01-07T15:27:28;7.16;43.55
22917;DHT22;11624;53.250;7.456;2024-01-07T15:29:57;7.11;43.65
22917;DHT22;11624;53.250;7.456;2024-01-07T15:32:25;7.03;43.69
22917;DHT22;11624;53.250;7.456;2024-01-07T15:34:54;6.96;44.11
22917;DHT22;11624;53.250;7.456;2024-01-07T15:37:23;6.86;44.22
22917;DHT22;11624;53.250;7.456;2024-01-07T15:39:52;6.75;44.40
22917;DHT22;11624;53.250;7.456;2024-01-07T15:42:22;6.69;44.40
22917;DHT22;11624;53.250;7.456;2024-01-07T15:44:51;6.69;44.76
22917;DHT22;11624;53.250;7.456;2024-01-07T15:47:20;6.56;44.80
22917;DHT22;11624;53.250;7.456;2024-01-07T15:49:50;6.50;44.94
22917;DHT22;11624;53.250;7.456;2024-01-07T15:52:18;6.39;45.10
22917;DHT22;11624;53.250;7.456;2024-01-07T15:54:46;6.29;45.26